SARP/PSS METAR and TAF weather

Enter ICAO airport designator
Station Type Date Time Source
SARP METAR 2019/12/10 19:00 UTC NOAA

SARP 101900Z 02005KT 9999 FEW030 34/20 Q1009


Station Type Date Time Source
SARP Decoded METAR 2019/12/10 19:00 UTC NOAA

Posadas Aero., Argentina (SARP) 27-22S 055-58W 133M
Dec 10, 2019 - 02:00 PM EST / 2019.12.10 1900 UTC
Wind: from the NNE (020 degrees) at 6 MPH (5 KT):0
Visibility: greater than 7 mile(s):0
Sky conditions: mostly clear
Temperature: 93 F (34 C)
Heat index: 96.8 F (36.0 C):1
Dew Point: 68 F (20 C)
Relative Humidity: 43%
Pressure (altimeter): 29.80 in. Hg (1009 hPa)
ob: SARP 101900Z 02005KT 9999 FEW030 34/20 Q1009
cycle: 19

Station Type Date Time Source
SARP TAF 2019/12/10 18:12 UTC NOAA

TAF SARP 101700Z 1018/1118 07005KT 9999 FEW030 TX35/1118Z TN21/1109Z

Example: see airport list